CMA CGM White Shark — MPXV7 — position and weather

sailwx.info

Track history (hours):
 
Tides and Currents Weather Stations Pressure Air Temp Water Temp Dewpoint Dewpoint Depression Visibility Wind Speed Wind Dir Waves Ship Positions

CMA CGM White Shark

Last reported at 2018-Feb-21 15:00 UTC. Time now 2018-Feb-21 15:29 UTC.
Position N 51°57' E 003°60'.

Length 294 m; draft 12.1 m.

Type: Ship (hazmat cat D). MMSI: 235052035.

Date/timePositionNaut miles runAvg speedWind from/ knotsBaromVisibWave heightAir tempDewpointWater temp
2018-Feb-21 15:00N 51°57' E 003°60'0 0.0
2018-Feb-21 14:27N 51°57' E 003°60'0 0.0
2018-Feb-21 14:00N 51°57' E 003°60'0 0.0
2018-Feb-21 13:30N 51°57' E 003°60'0 0.0
2018-Feb-21 12:57N 51°57' E 003°60'0 0.0
2018-Feb-21 12:30N 51°57' E 003°60'0 0.0
2018-Feb-21 12:00N 51°57' E 003°60'0 0.1
2018-Feb-21 11:30N 51°57' E 003°60'2 3.3
2018-Feb-21 11:00N 51°58' E 004°02'1 2.9
2018-Feb-21 10:30N 51°59' E 004°04'5 9.2
2018-Feb-21 10:01N 51°60' E 003°57'612.1
2018-Feb-21 09:30N 51°60' E 003°47'4 8.8
2018-Feb-21 09:00N 51°58' E 003°40'611.9
2018-Feb-21 08:29N 51°56' E 003°31'1 0.3
2018-Feb-21 05:42N 51°55' E 003°31'0 0.0
2018-Feb-21 05:18N 51°55' E 003°31'0 0.0
2018-Feb-21 05:00N 51°55' E 003°31'0 0.0
2018-Feb-21 04:27N 51°55' E 003°31'0 0.3
2018-Feb-21 03:51N 51°55' E 003°31'0 0.3
2018-Feb-21 03:27N 51°55' E 003°31'0 0.1
2018-Feb-21 02:42N 51°55' E 003°31'0 0.0
2018-Feb-21 02:21N 51°55' E 003°31'0 0.1
2018-Feb-21 01:57N 51°55' E 003°31'0 0.0
2018-Feb-21 01:27N 51°55' E 003°31'0 0.0
2018-Feb-21 00:48N 51°55' E 003°31'0 0.0
2018-Feb-21 00:30N 51°55' E 003°31'0 0.0
2018-Feb-20 23:48N 51°55' E 003°31'0 0.1
2018-Feb-20 18:45N 51°55' E 003°31'0 0.2
2018-Feb-20 18:25N 51°55' E 003°31'4 7.7
2018-Feb-20 17:57N 51°55' E 003°25'511.8
2018-Feb-20 17:30N 51°51' E 003°20'816.0
2018-Feb-20 17:00N 51°44' E 003°14'816.2
2018-Feb-20 16:30N 51°36' E 003°11'1020.7
2018-Feb-20 16:01N 51°28' E 003°01'612.3
2018-Feb-20 15:31N 51°24' E 003°09'817.0
2018-Feb-20 15:01N 51°25' E 003°23'715.0
2018-Feb-20 14:31N 51°26' E 003°35'4 7.6
2018-Feb-20 14:00N 51°26' E 003°41'713.8
2018-Feb-20 13:30N 51°21' E 003°48'713.4
2018-Feb-20 13:00N 51°24' E 003°57'4 7.0
2018-Feb-20 12:30N 51°23' E 004°03'612.8
2018-Feb-20 12:00N 51°23' E 004°13'611.0
2018-Feb-20 11:30N 51°18' E 004°16'1 1.2
2018-Feb-20 11:00N 51°17' E 004°16'0 0.0
2018-Feb-20 10:30N 51°17' E 004°16'0 0.0
2018-Feb-20 09:54N 51°17' E 004°16'0 0.0
2018-Feb-20 09:30N 51°17' E 004°16'0 0.0
2018-Feb-20 09:00N 51°17' E 004°16'0 0.0
2018-Feb-20 08:27N 51°17' E 004°16'0 0.0
2018-Feb-20 07:54N 51°17' E 004°16'0 0.0
2018-Feb-20 07:27N 51°17' E 004°16'0 0.0
2018-Feb-20 07:00N 51°17' E 004°16'0 0.0
2018-Feb-20 06:27N 51°17' E 004°16'0 0.0
2018-Feb-20 05:57N 51°17' E 004°16'0 0.0
2018-Feb-20 05:27N 51°17' E 004°16'0 0.0
2018-Feb-20 05:00N 51°17' E 004°16'0 0.0
2018-Feb-20 04:30N 51°17' E 004°16'0 0.0
2018-Feb-20 04:00N 51°17' E 004°16'0 0.0
2018-Feb-20 03:27N 51°17' E 004°16'0 0.0
2018-Feb-20 03:00N 51°17' E 004°16'0 0.0
2018-Feb-20 02:21N 51°17' E 004°16'0 0.0
2018-Feb-20 01:57N 51°17' E 004°16'0 0.0
2018-Feb-20 01:30N 51°17' E 004°16'0 0.0
2018-Feb-20 01:00N 51°17' E 004°16'0 0.0
2018-Feb-20 00:24N 51°17' E 004°16'0 0.0
2018-Feb-20 00:00N 51°17' E 004°16'0 0.0
2018-Feb-19 22:51N 51°17' E 004°16'0 0.0
2018-Feb-19 22:27N 51°17' E 004°16'0 0.0
2018-Feb-19 21:57N 51°17' E 004°16'0 0.0
2018-Feb-19 21:24N 51°17' E 004°16'0 0.0
2018-Feb-19 21:00N 51°17' E 004°16'0 0.0
2018-Feb-19 20:24N 51°17' E 004°16'0 0.0
2018-Feb-19 19:51N 51°17' E 004°16'0 0.0
2018-Feb-19 19:30N 51°17' E 004°16'1 1.3
2018-Feb-19 19:00N 51°18' E 004°16'2 3.3
2018-Feb-19 18:30N 51°20' E 004°16'510.5
2018-Feb-19 18:01N 51°24' E 004°11'611.3
2018-Feb-19 17:30N 51°23' E 004°02'4 7.1
2018-Feb-19 17:00N 51°23' E 003°57'713.4
2018-Feb-19 16:30N 51°21' E 003°46'714.1
2018-Feb-19 16:00N 51°26' E 003°38'510.7
2018-Feb-19 15:31N 51°25' E 003°30'1019.0
2018-Feb-19 15:01N 51°25' E 003°14'918.7
2018-Feb-19 14:31N 51°25' E 002°59'917.9
2018-Feb-19 14:00N 51°23' E 002°45'611.6
2018-Feb-19 13:28N 51°22' E 002°35'511.5
2018-Feb-19 13:00N 51°21' E 002°27'714.4
2018-Feb-19 12:31N 51°18' E 002°16'714.5
2018-Feb-19 12:00N 51°14' E 002°06'714.8
2018-Feb-19 11:30N 51°11' E 001°56'714.6
2018-Feb-19 11:00N 51°07' E 001°46'714.9
2018-Feb-19 10:30N 51°02' E 001°37'815.1
2018-Feb-19 10:00N 50°57' E 001°29'815.1
2018-Feb-19 09:30N 50°50' E 001°24'5713.1
2018-Feb-19 05:09N 50°21' E 000°07'213.0
2018-Feb-19 05:00N 50°20' E 000°04'713.4
2018-Feb-19 04:30N 50°14' W 000°01'714.0
2018-Feb-19 04:00N 50°08' W 000°03'714.2
2018-Feb-19 03:30N 50°01' W 000°06'714.7
2018-Feb-19 03:00N 49°53' W 000°08'815.1
2018-Feb-19 02:30N 49°46' W 000°09'816.5
2018-Feb-19 02:00N 49°38' W 000°07'713.4
2018-Feb-19 01:30N 49°32' W 000°01'714.6
2018-Feb-19 01:01N 49°28' E 000°08'1 2.9
2018-Feb-19 00:30N 49°27' E 000°10'0 0.0
2018-Feb-18 23:58N 49°27' E 000°10'0 0.0
2018-Feb-18 23:28N 49°27' E 000°10'0 0.0
2018-Feb-18 22:58N 49°27' E 000°10'0 0.0
2018-Feb-18 22:28N 49°27' E 000°10'0 0.0
2018-Feb-18 21:58N 49°27' E 000°10'0 0.0
2018-Feb-18 21:28N 49°27' E 000°10'0 0.0
2018-Feb-18 20:58N 49°27' E 000°10'0 0.0
2018-Feb-18 20:28N 49°27' E 000°10'0 0.0
2018-Feb-18 19:58N 49°27' E 000°10'0 0.0
2018-Feb-18 19:28N 49°27' E 000°10'0 0.0
2018-Feb-18 18:58N 49°27' E 000°10'0 0.0
2018-Feb-18 18:28N 49°27' E 000°10'0 0.0
2018-Feb-18 17:58N 49°27' E 000°10'0 0.0
2018-Feb-18 17:28N 49°27' E 000°10'0 0.0
2018-Feb-18 16:58N 49°27' E 000°10'0 0.0
2018-Feb-18 16:28N 49°27' E 000°10'0 0.0
2018-Feb-18 15:58N 49°27' E 000°10'0 0.0
2018-Feb-18 15:28N 49°27' E 000°10'0 0.0
2018-Feb-18 14:58N 49°27' E 000°10'0 0.0
2018-Feb-18 14:28N 49°27' E 000°10'0 0.0
2018-Feb-18 13:58N 49°27' E 000°10'0 0.0
2018-Feb-18 13:28N 49°27' E 000°10'0 0.0
2018-Feb-18 12:58N 49°27' E 000°10'0 0.0
2018-Feb-18 12:28N 49°27' E 000°10'0 0.0
2018-Feb-18 11:58N 49°27' E 000°10'0 0.0
2018-Feb-18 11:28N 49°27' E 000°10'0 0.0
2018-Feb-18 10:58N 49°27' E 000°10'0 0.0
2018-Feb-18 10:28N 49°27' E 000°10'0 0.0
2018-Feb-18 09:58N 49°27' E 000°10'0 0.0
2018-Feb-18 09:28N 49°27' E 000°10'0 0.0
2018-Feb-18 08:58N 49°27' E 000°10'0 0.0
2018-Feb-18 08:28N 49°27' E 000°10'0 0.0
2018-Feb-18 07:58N 49°27' E 000°10'0 0.0
2018-Feb-18 07:28N 49°27' E 000°10'0 0.0
2018-Feb-18 06:58N 49°27' E 000°10'0 0.0
2018-Feb-18 06:25N 49°27' E 000°10'0 0.0
2018-Feb-18 05:58N 49°27' E 000°10'0 0.0
2018-Feb-18 05:28N 49°27' E 000°10'0 0.0
2018-Feb-18 04:58N 49°27' E 000°10'0 0.0
2018-Feb-18 04:28N 49°27' E 000°10'0 0.9
2018-Feb-18 04:00N 49°28' E 000°09'4 8.0
2018-Feb-18 03:30N 49°29' E 000°04'714.6
2018-Feb-18 03:00N 49°31' W 000°07'510.9
2018-Feb-18 02:30N 49°33' W 000°15'714.1
2018-Feb-18 02:00N 49°36' W 000°25'816.6
2018-Feb-18 01:30N 49°40' W 000°37'816.7
2018-Feb-18 01:00N 49°43' W 000°48'815.7
2018-Feb-18 00:30N 49°46' W 000°60'816.3
2018-Feb-18 00:00N 49°49' W 001°11'816.2
2018-Feb-17 23:30N 49°52' W 001°23'815.8
2018-Feb-17 23:00N 49°54' W 001°35'816.1
2018-Feb-17 22:30N 49°54' W 001°47'816.8
2018-Feb-17 22:00N 49°54' W 002°01'917.0
2018-Feb-17 21:30N 49°55' W 002°14'1216.9
2018-Feb-17 20:49N 49°52' W 002°31'716.9
2018-Feb-17 20:25N 49°50' W 002°41'3516.9
2018-Feb-17 18:21N 49°39' W 003°33'2516.3
2018-Feb-17 16:50N 49°33' W 004°10'516.3
2018-Feb-17 16:30N 49°30' W 004°17'4216.6
2018-Feb-17 13:58N 49°15' W 005°17'1116.8
2018-Feb-17 13:20N 49°11' W 005°32'  
Track history (hours):
 
Tides and Currents Weather Stations Pressure Air Temp Water Temp Dewpoint Dewpoint Depression Visibility Wind Speed Wind Dir Waves Ship Positions

CMA CGM White Shark

Last reported at 2018-Feb-21 15:00 UTC. Time now 2018-Feb-21 15:29 UTC.
Position N 51°57' E 003°60'.

Length 294 m; draft 12.1 m.

Type: Ship (hazmat cat D). MMSI: 235052035.

Date/timePositionNaut miles runAvg speedWind from/ knotsBaromVisibWave heightAir tempDewpointWater temp
2018-Feb-21 15:00N 51°57' E 003°60'0 0.0
2018-Feb-21 14:27N 51°57' E 003°60'0 0.0
2018-Feb-21 14:00N 51°57' E 003°60'0 0.0
2018-Feb-21 13:30N 51°57' E 003°60'0 0.0
2018-Feb-21 12:57N 51°57' E 003°60'0 0.0
2018-Feb-21 12:30N 51°57' E 003°60'0 0.0
2018-Feb-21 12:00N 51°57' E 003°60'0 0.1
2018-Feb-21 11:30N 51°57' E 003°60'2 3.3
2018-Feb-21 11:00N 51°58' E 004°02'1 2.9
2018-Feb-21 10:30N 51°59' E 004°04'5 9.2
2018-Feb-21 10:01N 51°60' E 003°57'612.1
2018-Feb-21 09:30N 51°60' E 003°47'4 8.8
2018-Feb-21 09:00N 51°58' E 003°40'611.9
2018-Feb-21 08:29N 51°56' E 003°31'1 0.3
2018-Feb-21 05:42N 51°55' E 003°31'0 0.0
2018-Feb-21 05:18N 51°55' E 003°31'0 0.0
2018-Feb-21 05:00N 51°55' E 003°31'0 0.0
2018-Feb-21 04:27N 51°55' E 003°31'0 0.3
2018-Feb-21 03:51N 51°55' E 003°31'0 0.3
2018-Feb-21 03:27N 51°55' E 003°31'0 0.1
2018-Feb-21 02:42N 51°55' E 003°31'0 0.0
2018-Feb-21 02:21N 51°55' E 003°31'0 0.1
2018-Feb-21 01:57N 51°55' E 003°31'0 0.0
2018-Feb-21 01:27N 51°55' E 003°31'0 0.0
2018-Feb-21 00:48N 51°55' E 003°31'0 0.0
2018-Feb-21 00:30N 51°55' E 003°31'0 0.0
2018-Feb-20 23:48N 51°55' E 003°31'0 0.1
2018-Feb-20 18:45N 51°55' E 003°31'0 0.2
2018-Feb-20 18:25N 51°55' E 003°31'4 7.7
2018-Feb-20 17:57N 51°55' E 003°25'511.8
2018-Feb-20 17:30N 51°51' E 003°20'816.0
2018-Feb-20 17:00N 51°44' E 003°14'816.2
2018-Feb-20 16:30N 51°36' E 003°11'1020.7
2018-Feb-20 16:01N 51°28' E 003°01'612.3
2018-Feb-20 15:31N 51°24' E 003°09'817.0
2018-Feb-20 15:01N 51°25' E 003°23'715.0
2018-Feb-20 14:31N 51°26' E 003°35'4 7.6
2018-Feb-20 14:00N 51°26' E 003°41'713.8
2018-Feb-20 13:30N 51°21' E 003°48'713.4
2018-Feb-20 13:00N 51°24' E 003°57'4 7.0
2018-Feb-20 12:30N 51°23' E 004°03'612.8
2018-Feb-20 12:00N 51°23' E 004°13'611.0
2018-Feb-20 11:30N 51°18' E 004°16'1 1.2
2018-Feb-20 11:00N 51°17' E 004°16'0 0.0
2018-Feb-20 10:30N 51°17' E 004°16'0 0.0
2018-Feb-20 09:54N 51°17' E 004°16'0 0.0
2018-Feb-20 09:30N 51°17' E 004°16'0 0.0
2018-Feb-20 09:00N 51°17' E 004°16'0 0.0
2018-Feb-20 08:27N 51°17' E 004°16'0 0.0
2018-Feb-20 07:54N 51°17' E 004°16'0 0.0
2018-Feb-20 07:27N 51°17' E 004°16'0 0.0
2018-Feb-20 07:00N 51°17' E 004°16'0 0.0
2018-Feb-20 06:27N 51°17' E 004°16'0 0.0
2018-Feb-20 05:57N 51°17' E 004°16'0 0.0
2018-Feb-20 05:27N 51°17' E 004°16'0 0.0
2018-Feb-20 05:00N 51°17' E 004°16'0 0.0
2018-Feb-20 04:30N 51°17' E 004°16'0 0.0
2018-Feb-20 04:00N 51°17' E 004°16'0 0.0
2018-Feb-20 03:27N 51°17' E 004°16'0 0.0
2018-Feb-20 03:00N 51°17' E 004°16'0 0.0
2018-Feb-20 02:21N 51°17' E 004°16'0 0.0
2018-Feb-20 01:57N 51°17' E 004°16'0 0.0
2018-Feb-20 01:30N 51°17' E 004°16'0 0.0
2018-Feb-20 01:00N 51°17' E 004°16'0 0.0
2018-Feb-20 00:24N 51°17' E 004°16'0 0.0
2018-Feb-20 00:00N 51°17' E 004°16'0 0.0
2018-Feb-19 22:51N 51°17' E 004°16'0 0.0
2018-Feb-19 22:27N 51°17' E 004°16'0 0.0
2018-Feb-19 21:57N 51°17' E 004°16'0 0.0
2018-Feb-19 21:24N 51°17' E 004°16'0 0.0
2018-Feb-19 21:00N 51°17' E 004°16'0 0.0
2018-Feb-19 20:24N 51°17' E 004°16'0 0.0
2018-Feb-19 19:51N 51°17' E 004°16'0 0.0
2018-Feb-19 19:30N 51°17' E 004°16'1 1.3
2018-Feb-19 19:00N 51°18' E 004°16'2 3.3
2018-Feb-19 18:30N 51°20' E 004°16'510.5
2018-Feb-19 18:01N 51°24' E 004°11'611.3
2018-Feb-19 17:30N 51°23' E 004°02'4 7.1
2018-Feb-19 17:00N 51°23' E 003°57'713.4
2018-Feb-19 16:30N 51°21' E 003°46'714.1
2018-Feb-19 16:00N 51°26' E 003°38'510.7
2018-Feb-19 15:31N 51°25' E 003°30'1019.0
2018-Feb-19 15:01N 51°25' E 003°14'918.7
2018-Feb-19 14:31N 51°25' E 002°59'917.9
2018-Feb-19 14:00N 51°23' E 002°45'611.6
2018-Feb-19 13:28N 51°22' E 002°35'511.5
2018-Feb-19 13:00N 51°21' E 002°27'714.4
2018-Feb-19 12:31N 51°18' E 002°16'714.5
2018-Feb-19 12:00N 51°14' E 002°06'714.8
2018-Feb-19 11:30N 51°11' E 001°56'714.6
2018-Feb-19 11:00N 51°07' E 001°46'714.9
2018-Feb-19 10:30N 51°02' E 001°37'815.1
2018-Feb-19 10:00N 50°57' E 001°29'815.1
2018-Feb-19 09:30N 50°50' E 001°24'5713.1
2018-Feb-19 05:09N 50°21' E 000°07'213.0
2018-Feb-19 05:00N 50°20' E 000°04'713.4
2018-Feb-19 04:30N 50°14' W 000°01'714.0
2018-Feb-19 04:00N 50°08' W 000°03'714.2
2018-Feb-19 03:30N 50°01' W 000°06'714.7
2018-Feb-19 03:00N 49°53' W 000°08'815.1
2018-Feb-19 02:30N 49°46' W 000°09'816.5
2018-Feb-19 02:00N 49°38' W 000°07'713.4
2018-Feb-19 01:30N 49°32' W 000°01'714.6
2018-Feb-19 01:01N 49°28' E 000°08'1 2.9
2018-Feb-19 00:30N 49°27' E 000°10'0 0.0
2018-Feb-18 23:58N 49°27' E 000°10'0 0.0
2018-Feb-18 23:28N 49°27' E 000°10'0 0.0
2018-Feb-18 22:58N 49°27' E 000°10'0 0.0
2018-Feb-18 22:28N 49°27' E 000°10'0 0.0
2018-Feb-18 21:58N 49°27' E 000°10'0 0.0
2018-Feb-18 21:28N 49°27' E 000°10'0 0.0
2018-Feb-18 20:58N 49°27' E 000°10'0 0.0
2018-Feb-18 20:28N 49°27' E 000°10'0 0.0
2018-Feb-18 19:58N 49°27' E 000°10'0 0.0
2018-Feb-18 19:28N 49°27' E 000°10'0 0.0
2018-Feb-18 18:58N 49°27' E 000°10'0 0.0
2018-Feb-18 18:28N 49°27' E 000°10'0 0.0
2018-Feb-18 17:58N 49°27' E 000°10'0 0.0
2018-Feb-18 17:28N 49°27' E 000°10'0 0.0
2018-Feb-18 16:58N 49°27' E 000°10'0 0.0
2018-Feb-18 16:28N 49°27' E 000°10'0 0.0
2018-Feb-18 15:58N 49°27' E 000°10'0 0.0
2018-Feb-18 15:28N 49°27' E 000°10'0 0.0
2018-Feb-18 14:58N 49°27' E 000°10'0 0.0
2018-Feb-18 14:28N 49°27' E 000°10'0 0.0
2018-Feb-18 13:58N 49°27' E 000°10'0 0.0
2018-Feb-18 13:28N 49°27' E 000°10'0 0.0
2018-Feb-18 12:58N 49°27' E 000°10'0 0.0
2018-Feb-18 12:28N 49°27' E 000°10'0 0.0
2018-Feb-18 11:58N 49°27' E 000°10'0 0.0
2018-Feb-18 11:28N 49°27' E 000°10'0 0.0
2018-Feb-18 10:58N 49°27' E 000°10'0 0.0
2018-Feb-18 10:28N 49°27' E 000°10'0 0.0
2018-Feb-18 09:58N 49°27' E 000°10'0 0.0
2018-Feb-18 09:28N 49°27' E 000°10'0 0.0
2018-Feb-18 08:58N 49°27' E 000°10'0 0.0
2018-Feb-18 08:28N 49°27' E 000°10'0 0.0
2018-Feb-18 07:58N 49°27' E 000°10'0 0.0
2018-Feb-18 07:28N 49°27' E 000°10'0 0.0
2018-Feb-18 06:58N 49°27' E 000°10'0 0.0
2018-Feb-18 06:25N 49°27' E 000°10'0 0.0
2018-Feb-18 05:58N 49°27' E 000°10'0 0.0
2018-Feb-18 05:28N 49°27' E 000°10'0 0.0
2018-Feb-18 04:58N 49°27' E 000°10'0 0.0
2018-Feb-18 04:28N 49°27' E 000°10'0 0.9
2018-Feb-18 04:00N 49°28' E 000°09'4 8.0
2018-Feb-18 03:30N 49°29' E 000°04'714.6
2018-Feb-18 03:00N 49°31' W 000°07'510.9
2018-Feb-18 02:30N 49°33' W 000°15'714.1
2018-Feb-18 02:00N 49°36' W 000°25'816.6
2018-Feb-18 01:30N 49°40' W 000°37'816.7
2018-Feb-18 01:00N 49°43' W 000°48'815.7
2018-Feb-18 00:30N 49°46' W 000°60'816.3
2018-Feb-18 00:00N 49°49' W 001°11'816.2
2018-Feb-17 23:30N 49°52' W 001°23'815.8
2018-Feb-17 23:00N 49°54' W 001°35'816.1
2018-Feb-17 22:30N 49°54' W 001°47'816.8
2018-Feb-17 22:00N 49°54' W 002°01'917.0
2018-Feb-17 21:30N 49°55' W 002°14'1216.9
2018-Feb-17 20:49N 49°52' W 002°31'716.9
2018-Feb-17 20:25N 49°50' W 002°41'3516.9
2018-Feb-17 18:21N 49°39' W 003°33'2516.3
2018-Feb-17 16:50N 49°33' W 004°10'516.3
2018-Feb-17 16:30N 49°30' W 004°17'4216.6
2018-Feb-17 13:58N 49°15' W 005°17'1116.8
2018-Feb-17 13:20N 49°11' W 005°32'  

Dump ship's entire track history